createdAt,value
2023-06-19T00:14:48.954Z,100525.47
2023-06-19T00:17:17.946Z,100526.69
2023-06-19T00:19:45.370Z,100540.03
2023-06-19T00:22:12.201Z,100543.94
2023-06-19T00:24:39.106Z,100547.19
2023-06-19T00:27:06.871Z,100549.16
2023-06-19T00:29:35.580Z,100551.13
2023-06-19T00:32:02.651Z,100564.88
2023-06-19T00:34:31.007Z,100560.31
2023-06-19T00:37:00.710Z,100571.22
2023-06-19T00:39:28.562Z,100580.03
2023-06-19T00:41:57.849Z,100573.59
2023-06-19T00:44:24.684Z,100575.47
2023-06-19T00:46:53.042Z,100580.94
2023-06-19T00:49:19.913Z,100584.44
2023-06-19T00:51:46.968Z,100588.22
2023-06-19T00:54:15.521Z,100575.94
2023-06-19T00:56:42.318Z,100575.63
2023-06-19T00:59:14.478Z,100585.69
2023-06-19T01:01:42.761Z,100577.63
2023-06-19T01:04:09.645Z,100566.53
2023-06-19T01:06:52.820Z,100570.94
2023-06-19T01:09:21.031Z,100576.41
2023-06-19T01:11:51.986Z,100579.22
2023-06-19T01:14:40.580Z,100580.00
2023-06-19T01:17:07.877Z,100575.66
2023-06-19T01:19:35.681Z,100569.34
2023-06-19T01:22:05.363Z,100586.69
2023-06-19T01:24:32.393Z,100586.56
2023-06-19T01:27:01.760Z,100598.06
2023-06-19T01:29:28.792Z,100592.16
2023-06-19T01:32:11.685Z,100592.97
2023-06-19T01:34:40.805Z,100596.91
2023-06-19T01:37:08.754Z,100598.41
2023-06-19T01:39:37.903Z,100603.19
2023-06-19T01:42:05.760Z,100597.63
2023-06-19T01:44:33.894Z,100592.50
2023-06-19T01:47:00.785Z,100603.25
2023-06-19T01:49:27.690Z,100618.59
2023-06-19T01:51:54.516Z,100613.44
2023-06-19T01:54:21.344Z,100616.25
2023-06-19T01:56:48.736Z,100620.59
2023-06-19T01:59:15.748Z,100623.72
2023-06-19T02:01:42.605Z,100628.84
2023-06-19T02:04:09.478Z,100626.91
2023-06-19T02:06:37.684Z,100643.88
2023-06-19T02:09:05.711Z,100632.81
2023-06-19T02:11:33.429Z,100635.56
2023-06-19T02:14:00.273Z,100654.91
2023-06-19T02:16:27.138Z,100646.22
2023-06-19T02:18:56.989Z,100636.41
2023-06-19T02:21:24.349Z,100647.03
2023-06-19T02:23:52.295Z,100645.06
2023-06-19T02:26:19.252Z,100646.63
2023-06-19T02:28:47.366Z,100640.72
2023-06-19T02:31:14.118Z,100641.09
2023-06-19T02:33:41.042Z,100636.78
2023-06-19T02:36:07.834Z,100642.69
2023-06-19T02:38:34.660Z,100655.28
2023-06-19T02:41:04.454Z,100643.84
2023-06-19T02:43:33.284Z,100654.47
2023-06-19T02:46:00.150Z,100652.88
2023-06-19T02:48:29.067Z,100653.31
2023-06-19T02:50:56.589Z,100648.97
2023-06-19T02:53:23.717Z,100658.03
2023-06-19T02:55:50.529Z,100661.53
2023-06-19T02:58:17.277Z,100665.91
2023-06-19T03:00:44.801Z,100657.16
2023-06-19T03:03:12.858Z,100660.31
2023-06-19T03:05:39.837Z,100659.19
2023-06-19T03:08:06.878Z,100661.59
2023-06-19T03:10:33.958Z,100660.34
2023-06-19T03:13:00.738Z,100663.16
2023-06-19T03:15:27.675Z,100664.75
2023-06-19T03:17:54.986Z,100666.72
2023-06-19T03:20:23.996Z,100668.31
2023-06-19T03:22:56.247Z,100665.53
2023-06-19T03:25:24.670Z,100672.59
2023-06-19T03:27:51.890Z,100685.63
2023-06-19T03:30:19.935Z,100686.44
2023-06-19T03:32:50.544Z,100683.66
2023-06-19T03:35:41.869Z,100684.44
2023-06-19T03:38:13.219Z,100696.25
2023-06-19T03:40:40.444Z,100709.66
2023-06-19T03:43:12.280Z,100703.38
2023-06-19T03:45:39.611Z,100712.44
2023-06-19T03:48:06.828Z,100711.63
2023-06-19T03:50:34.749Z,100710.47
2023-06-19T03:53:01.644Z,100707.72
2023-06-19T03:55:28.556Z,100716.34
2023-06-19T03:57:55.670Z,100725.03
2023-06-19T04:00:24.009Z,100731.72
2023-06-19T04:02:51.724Z,100733.69
2023-06-19T04:05:20.780Z,100726.97
2023-06-19T04:07:47.987Z,100732.53
2023-06-19T04:10:16.206Z,100730.56
2023-06-19T04:12:43.157Z,100734.88
2023-06-19T04:15:11.816Z,100738.44
2023-06-19T04:17:38.780Z,100746.34
2023-06-19T04:20:20.739Z,100738.38
2023-06-19T04:22:50.814Z,100747.88
2023-06-19T04:25:17.874Z,100755.00
2023-06-19T04:27:45.789Z,100755.34
2023-06-19T04:30:13.112Z,100759.72
2023-06-19T04:32:42.801Z,100754.59
2023-06-19T04:35:10.732Z,100768.78
2023-06-19T04:37:37.629Z,100777.00
2023-06-19T04:40:05.455Z,100764.06
2023-06-19T04:42:32.492Z,100766.00
2023-06-19T04:45:00.781Z,100766.84
2023-06-19T04:47:36.412Z,100775.88
2023-06-19T04:50:11.008Z,100776.66
2023-06-19T04:52:38.831Z,100769.22
2023-06-19T04:55:12.200Z,100778.25
2023-06-19T04:57:39.152Z,100777.03
2023-06-19T05:00:11.399Z,100780.63
2023-06-19T05:02:38.470Z,100790.50
2023-06-19T05:05:05.947Z,100789.31
2023-06-19T05:07:33.104Z,100799.13
2023-06-19T05:10:02.236Z,100798.38
2023-06-19T05:12:29.079Z,100789.72
2023-06-19T05:14:57.316Z,100765.22
2023-06-19T05:17:24.288Z,100780.97
2023-06-19T05:19:53.657Z,100797.97
2023-06-19T05:22:22.661Z,100796.81
2023-06-19T05:24:49.712Z,100800.75
2023-06-19T05:27:16.614Z,100804.28
2023-06-19T05:51:43.738Z,100807.38
2023-06-19T05:54:11.048Z,100814.50
2023-06-19T05:56:38.898Z,100816.72
2023-06-19T05:59:05.850Z,100833.03
2023-06-19T06:01:33.099Z,100845.44
2023-06-19T06:13:21.600Z,100862.25
2023-06-19T06:15:48.611Z,100870.16
2023-06-19T06:18:15.448Z,100870.53
2023-06-19T06:20:42.880Z,100865.34
2023-06-19T06:23:10.443Z,100875.22
2023-06-19T06:25:37.397Z,100881.88
2023-06-19T06:28:04.538Z,100891.34
2023-06-19T06:30:32.263Z,100872.44
2023-06-19T06:32:59.651Z,100903.28
2023-06-19T06:35:27.017Z,100896.59
2023-06-19T06:37:54.143Z,100902.44
2023-06-19T06:45:56.944Z,100911.97
2023-06-19T06:48:24.639Z,100910.03
2023-06-19T06:50:57.429Z,100909.63
2023-06-19T06:53:26.816Z,100923.38
2023-06-19T06:55:53.857Z,100917.88
2023-06-19T06:58:22.636Z,100918.25
2023-06-19T07:00:52.559Z,100911.63
2023-06-19T07:06:04.448Z,100911.53
2023-06-19T07:08:32.003Z,100922.63
2023-06-19T07:10:59.585Z,100922.19
2023-06-19T07:13:26.837Z,100921.41
2023-06-19T07:15:54.344Z,100925.38
2023-06-19T07:18:22.881Z,100925.38
2023-06-19T07:20:49.760Z,100941.94
2023-06-19T07:23:16.819Z,100939.94
2023-06-19T07:25:43.697Z,100928.75
2023-06-19T07:28:10.686Z,100921.69
2023-06-19T07:30:37.518Z,100937.09
2023-06-19T07:33:04.770Z,100949.31
2023-06-19T07:35:31.832Z,100950.50
2023-06-19T07:37:59.091Z,100938.69
2023-06-19T07:40:29.166Z,100928.56
2023-06-19T07:42:56.258Z,100924.53
2023-06-19T07:45:27.095Z,100930.31
2023-06-19T07:48:00.518Z,100916.59
2023-06-19T07:50:28.955Z,100911.19
2023-06-19T07:52:56.174Z,100920.34
2023-06-19T07:55:23.035Z,100921.53
2023-06-19T07:57:49.926Z,100927.09
2023-06-19T08:00:17.166Z,100932.59
2023-06-19T08:02:44.127Z,100945.84
2023-06-19T08:05:14.270Z,100946.44
2023-06-19T08:07:41.591Z,100952.44
2023-06-19T08:10:27.613Z,100953.34
2023-06-19T08:12:54.812Z,100934.25
2023-06-19T08:15:21.878Z,100937.00
2023-06-19T08:17:48.767Z,100939.31
2023-06-19T08:20:15.727Z,100954.59
2023-06-19T08:22:42.712Z,100949.41
2023-06-19T08:25:09.813Z,100942.69
2023-06-19T08:27:36.953Z,100948.38
2023-06-19T08:30:08.408Z,100949.97
2023-06-19T08:32:38.453Z,100950.63
2023-06-19T08:35:05.895Z,100960.16
2023-06-19T08:37:33.055Z,100960.59
2023-06-19T08:40:01.132Z,100974.22
2023-06-19T08:42:28.879Z,100955.81
2023-06-19T08:44:55.966Z,100957.84
2023-06-19T08:47:23.027Z,100951.66
2023-06-19T08:49:50.860Z,100958.66
2023-06-19T08:52:21.192Z,100958.59
2023-06-19T08:54:49.154Z,100980.25
2023-06-19T08:57:18.739Z,100959.69
2023-06-19T08:59:53.367Z,100964.63
2023-06-19T09:02:22.297Z,100966.84
2023-06-19T09:04:50.971Z,100954.16
2023-06-19T09:07:33.333Z,100959.50
2023-06-19T09:10:00.924Z,100971.97
2023-06-19T09:12:35.965Z,100953.09
2023-06-19T09:15:04.274Z,100972.22
2023-06-19T09:17:31.718Z,100976.22
2023-06-19T09:20:07.002Z,100965.91
2023-06-19T09:22:34.932Z,100975.94
2023-06-19T09:25:05.480Z,100975.78
2023-06-19T09:27:35.886Z,100972.66
2023-06-19T09:30:06.353Z,100969.63
2023-06-19T09:32:38.014Z,100963.63
2023-06-19T09:38:19.418Z,100956.22
2023-06-19T09:40:48.976Z,100977.16
2023-06-19T09:43:24.151Z,100958.25
2023-06-19T09:48:56.759Z,100971.53
2023-06-19T09:52:03.477Z,100974.84
2023-06-19T09:54:31.666Z,100974.19
2023-06-19T09:57:01.192Z,100964.41
2023-06-19T09:59:29.558Z,100954.91
2023-06-19T10:05:14.882Z,100953.22
2023-06-19T10:10:56.855Z,100978.28
2023-06-19T10:13:35.268Z,100957.59
2023-06-19T10:16:06.097Z,100964.44
2023-06-19T10:18:36.271Z,100961.88
2023-06-19T10:21:03.488Z,100956.34
2023-06-19T10:36:27.284Z,100975.03
2023-06-19T10:38:58.429Z,100945.94
2023-06-19T10:41:26.492Z,100961.97
2023-06-19T10:44:11.086Z,100958.78
2023-06-19T10:46:39.675Z,100964.22
2023-06-19T10:49:08.513Z,100958.66
2023-06-19T10:51:36.519Z,100947.28
2023-06-19T11:03:37.871Z,100942.22
2023-06-19T11:11:57.911Z,100946.84
2023-06-19T11:18:07.838Z,100951.34
2023-06-19T11:30:08.665Z,100923.06
2023-06-19T11:32:42.376Z,100938.59
2023-06-19T11:35:12.301Z,100942.19
2023-06-19T11:37:44.457Z,100930.31
2023-06-19T11:40:16.569Z,100930.84
2023-06-19T12:01:16.908Z,100926.56
2023-06-19T12:06:46.906Z,100924.91
2023-06-19T12:09:13.947Z,100934.03
2023-06-19T12:11:42.441Z,100916.88
2023-06-19T12:14:09.713Z,100907.28
2023-06-19T12:16:37.016Z,100912.97
2023-06-19T12:19:04.343Z,100904.25
2023-06-19T12:21:37.802Z,100908.19
2023-06-19T12:24:08.723Z,100902.06
2023-06-19T12:26:38.643Z,100898.66
2023-06-19T12:29:07.431Z,100918.22
2023-06-19T12:31:35.838Z,100901.44
2023-06-19T12:34:13.500Z,100899.38
2023-06-19T12:36:51.442Z,100909.22
2023-06-19T12:39:24.490Z,100887.38
2023-06-19T12:41:52.979Z,100900.19
2023-06-19T12:44:20.215Z,100897.63
2023-06-19T12:46:48.119Z,100903.75
2023-06-19T12:49:15.032Z,100907.50
2023-06-19T12:51:42.985Z,100895.78
2023-06-19T12:54:10.750Z,100890.28
2023-06-19T12:56:39.658Z,100891.53
2023-06-19T12:59:06.454Z,100887.31
2023-06-19T13:01:33.618Z,100888.19
2023-06-19T13:04:00.604Z,100891.63
2023-06-19T13:06:27.704Z,100886.13
2023-06-19T13:08:57.112Z,100879.56
2023-06-19T13:11:24.184Z,100889.03
2023-06-19T13:13:51.205Z,100879.59
2023-06-19T13:16:27.223Z,100872.78
2023-06-19T13:19:07.324Z,100872.66
2023-06-19T13:21:34.940Z,100862.03
2023-06-19T13:24:01.940Z,100870.09
2023-06-19T13:26:34.871Z,100879.53
2023-06-19T13:29:02.017Z,100866.63
2023-06-19T13:31:28.952Z,100866.78
2023-06-19T13:33:56.327Z,100872.53
2023-06-19T13:36:25.122Z,100868.41
2023-06-19T13:38:52.993Z,100870.06
2023-06-19T13:41:20.127Z,100858.22
2023-06-19T13:43:47.237Z,100856.91
2023-06-19T13:46:14.344Z,100862.44
2023-06-19T13:48:41.275Z,100870.44
2023-06-19T13:51:08.930Z,100859.50
2023-06-19T13:53:35.723Z,100854.81
2023-06-19T13:56:02.805Z,100852.28
2023-06-19T13:58:31.275Z,100851.34
2023-06-19T14:00:58.548Z,100845.56
2023-06-19T14:03:26.002Z,100851.22
2023-06-19T14:05:53.104Z,100846.72
2023-06-19T14:08:19.951Z,100850.22
2023-06-19T14:10:46.831Z,100847.88
2023-06-19T14:13:15.043Z,100845.69
2023-06-19T14:15:42.350Z,100848.22
2023-06-19T14:18:09.670Z,100840.47
2023-06-19T14:20:36.642Z,100838.19
2023-06-19T14:23:06.639Z,100835.84
2023-06-19T14:25:36.538Z,100820.53
2023-06-19T14:28:09.730Z,100831.41
2023-06-19T14:30:37.123Z,100824.00
2023-06-19T14:33:04.638Z,100822.38
2023-06-19T14:35:35.319Z,100819.22
2023-06-19T14:38:02.684Z,100824.47
2023-06-19T14:40:38.750Z,100814.84
2023-06-19T14:43:08.239Z,100824.28
2023-06-19T14:45:35.758Z,100812.97
2023-06-19T14:48:03.756Z,100816.81
2023-06-19T14:50:42.887Z,100831.59
2023-06-19T14:53:10.008Z,100838.91
2023-06-19T14:55:36.927Z,100818.03
2023-06-19T14:58:07.139Z,100826.88
2023-06-19T15:00:43.402Z,100821.91
2023-06-19T15:03:13.766Z,100809.41
2023-06-19T15:05:46.036Z,100821.41
2023-06-19T15:08:22.531Z,100827.56
2023-06-19T15:11:11.240Z,100801.28
2023-06-19T15:13:51.820Z,100798.31
2023-06-19T15:16:26.610Z,100808.13
2023-06-19T15:18:58.109Z,100805.91
2023-06-19T15:21:50.229Z,100803.00
2023-06-19T15:24:17.320Z,100801.22
2023-06-19T15:26:44.601Z,100803.41
2023-06-19T15:29:13.314Z,100807.59
2023-06-19T15:31:40.832Z,100803.28
2023-06-19T15:34:09.714Z,100803.13
2023-06-19T15:36:36.799Z,100794.97
2023-06-19T15:39:04.197Z,100802.94
2023-06-19T15:41:48.212Z,100797.81
2023-06-19T15:44:22.633Z,100794.81
2023-06-19T15:46:49.580Z,100795.63
2023-06-19T15:49:16.719Z,100789.91
2023-06-19T15:51:43.608Z,100791.72
2023-06-19T15:54:13.157Z,100794.06
2023-06-19T15:56:50.197Z,100785.25
2023-06-19T15:59:17.463Z,100786.28
2023-06-19T16:01:44.437Z,100784.03
2023-06-19T16:04:11.742Z,100788.78
2023-06-19T16:06:40.850Z,100788.03
2023-06-19T16:09:08.158Z,100788.69
2023-06-19T16:11:35.801Z,100791.47
2023-06-19T16:14:20.422Z,100778.63
2023-06-19T16:16:47.276Z,100793.31
2023-06-19T16:19:14.086Z,100787.00
2023-06-19T16:21:40.867Z,100780.72
2023-06-19T16:24:08.700Z,100769.47
2023-06-19T16:26:35.572Z,100779.25
2023-06-19T16:29:02.897Z,100779.22
2023-06-19T16:31:30.183Z,100774.31
2023-06-19T16:33:56.984Z,100769.41
2023-06-19T16:36:24.609Z,100774.75
2023-06-19T16:38:51.426Z,100762.16
2023-06-19T16:41:20.784Z,100762.00
2023-06-19T16:43:47.888Z,100765.81
2023-06-19T16:46:14.870Z,100760.41
2023-06-19T16:48:41.725Z,100758.38
2023-06-19T16:51:08.791Z,100752.59
2023-06-19T16:53:36.084Z,100746.06
2023-06-19T16:56:02.876Z,100752.31
2023-06-19T16:58:29.924Z,100733.41
2023-06-19T17:00:56.850Z,100732.91
2023-06-19T17:03:24.321Z,100736.38
2023-06-19T17:05:51.186Z,100736.53
2023-06-19T17:08:18.195Z,100738.59
2023-06-19T17:10:45.151Z,100744.81
2023-06-19T17:13:12.027Z,100748.03
2023-06-19T17:15:38.920Z,100752.34
2023-06-19T17:18:07.429Z,100746.97
2023-06-19T17:20:35.060Z,100745.72
2023-06-19T17:23:01.938Z,100741.78
2023-06-19T17:25:29.537Z,100747.94
2023-06-19T17:27:56.965Z,100746.69
2023-06-19T17:30:24.197Z,100753.13
2023-06-19T17:32:51.628Z,100749.03
2023-06-19T17:35:18.812Z,100745.25
2023-06-19T17:37:45.774Z,100746.94
2023-06-19T17:40:14.451Z,100756.03
2023-06-19T17:42:41.973Z,100756.59
2023-06-19T17:45:10.218Z,100754.44
2023-06-19T17:47:37.236Z,100740.56
2023-06-19T17:50:04.333Z,100746.50
2023-06-19T17:52:31.201Z,100742.97
2023-06-19T17:54:58.080Z,100751.09
2023-06-19T17:57:25.089Z,100757.19
2023-06-19T17:59:52.453Z,100742.53
2023-06-19T18:02:19.395Z,100743.75
2023-06-19T18:04:46.252Z,100745.66
2023-06-19T18:07:13.104Z,100741.75
2023-06-19T18:09:40.330Z,100735.72
2023-06-19T18:12:07.292Z,100738.44
2023-06-19T18:14:34.151Z,100742.19
2023-06-19T18:17:04.743Z,100732.38
2023-06-19T18:19:31.805Z,100739.06
2023-06-19T18:21:58.619Z,100736.28
2023-06-19T18:24:25.521Z,100732.72
2023-06-19T18:26:52.379Z,100732.13
2023-06-19T18:29:38.932Z,100729.91
2023-06-19T18:32:09.475Z,100728.00
2023-06-19T18:34:41.553Z,100719.53
2023-06-19T18:37:08.612Z,100719.41
2023-06-19T18:39:42.310Z,100723.81
2023-06-19T18:42:14.883Z,100721.94
2023-06-19T18:44:41.725Z,100730.56
2023-06-19T18:47:08.655Z,100737.53
2023-06-19T18:49:35.719Z,100733.31
2023-06-19T18:52:03.356Z,100736.22
2023-06-19T18:54:30.102Z,100734.31
2023-06-19T18:56:57.549Z,100746.16
2023-06-19T18:59:24.540Z,100730.84
2023-06-19T19:01:51.844Z,100736.31
2023-06-19T19:04:18.828Z,100730.25
2023-06-19T19:06:45.634Z,100731.81
2023-06-19T19:09:12.538Z,100729.13
2023-06-19T19:11:39.550Z,100734.69
2023-06-19T19:14:06.439Z,100740.66
2023-06-19T19:16:33.220Z,100737.97
2023-06-19T19:19:00.358Z,100735.97
2023-06-19T19:21:27.208Z,100737.88
2023-06-19T19:23:54.090Z,100742.22
2023-06-19T19:26:21.084Z,100736.09
2023-06-19T19:28:47.868Z,100735.19
2023-06-19T19:31:15.390Z,100736.81
2023-06-19T19:33:42.225Z,100738.41
2023-06-19T19:36:09.352Z,100746.84
2023-06-19T19:38:37.529Z,100752.41
2023-06-19T19:41:04.408Z,100760.19
2023-06-19T19:43:31.415Z,100750.19
2023-06-19T19:45:58.257Z,100755.06
2023-06-19T19:48:25.246Z,100740.00
2023-06-19T19:50:51.977Z,100753.34
2023-06-19T19:53:19.124Z,100759.88
2023-06-19T19:55:45.797Z,100757.75
2023-06-19T19:58:14.476Z,100768.25
2023-06-19T20:00:49.728Z,100765.44
2023-06-19T20:03:17.661Z,100768.66
2023-06-19T20:05:44.648Z,100772.44
2023-06-19T20:08:11.540Z,100773.81
2023-06-19T20:10:38.573Z,100770.31
2023-06-19T20:13:05.503Z,100776.59
2023-06-19T20:15:32.364Z,100782.69
2023-06-19T20:17:59.213Z,100785.13
2023-06-19T20:20:26.769Z,100779.53
2023-06-19T20:22:54.162Z,100788.25
2023-06-19T20:25:21.816Z,100798.00
2023-06-19T20:28:06.076Z,100804.16
2023-06-19T20:30:34.645Z,100798.50
2023-06-19T20:33:01.510Z,100800.56
2023-06-19T20:35:28.382Z,100804.94
2023-06-19T20:37:55.732Z,100800.22
2023-06-19T20:40:23.545Z,100812.34
2023-06-19T20:42:52.247Z,100818.53
2023-06-19T20:45:19.928Z,100824.94
2023-06-19T20:47:46.623Z,100813.97
2023-06-19T20:50:15.288Z,100818.34
2023-06-19T20:52:42.005Z,100822.06
2023-06-19T20:55:09.470Z,100817.25
2023-06-19T20:57:36.596Z,100821.69
2023-06-19T21:00:10.651Z,100825.69
2023-06-19T21:02:41.154Z,100829.00
2023-06-19T21:05:09.966Z,100823.88
2023-06-19T21:07:36.957Z,100816.25
2023-06-19T21:10:04.965Z,100818.81
2023-06-19T21:12:32.477Z,100820.91
2023-06-19T21:14:59.320Z,100811.41
2023-06-19T21:17:26.210Z,100816.97
2023-06-19T21:19:54.549Z,100814.72
2023-06-19T21:22:21.359Z,100809.22
2023-06-19T21:24:48.234Z,100814.19
2023-06-19T21:27:15.008Z,100813.47
2023-06-19T21:29:43.687Z,100806.34
2023-06-19T21:32:10.373Z,100804.84
2023-06-19T21:34:37.217Z,100811.00
2023-06-19T21:37:04.036Z,100814.13
2023-06-19T21:39:30.782Z,100809.38
2023-06-19T21:41:57.604Z,100804.34
2023-06-19T21:44:24.477Z,100797.38
2023-06-19T21:46:51.523Z,100793.44
2023-06-19T21:49:18.691Z,100796.88
2023-06-19T21:51:45.557Z,100789.50
2023-06-19T21:54:12.303Z,100787.41
2023-06-19T21:56:39.438Z,100779.75
2023-06-19T21:59:07.973Z,100779.47
2023-06-19T22:01:35.482Z,100773.22
2023-06-19T22:04:03.391Z,100779.16
2023-06-19T22:06:31.489Z,100778.78
2023-06-19T22:09:01.264Z,100775.22
2023-06-19T22:11:29.224Z,100779.34
2023-06-19T22:13:57.538Z,100773.19
2023-06-19T22:16:24.744Z,100769.38
2023-06-19T22:18:51.578Z,100769.91
2023-06-19T22:21:19.204Z,100759.16
2023-06-19T22:23:46.128Z,100750.94
2023-06-19T22:26:13.302Z,100761.59
2023-06-19T22:28:53.994Z,100763.28
2023-06-19T22:31:33.152Z,100760.34
2023-06-19T22:34:07.405Z,100765.69
2023-06-19T22:36:47.007Z,100741.69
2023-06-19T22:39:22.959Z,100770.47
2023-06-19T22:41:50.048Z,100759.72
2023-06-19T22:44:16.898Z,100767.63
2023-06-19T22:46:43.765Z,100763.81
2023-06-19T22:49:14.940Z,100770.81
2023-06-19T22:51:41.915Z,100765.56
2023-06-19T22:54:08.720Z,100763.59
2023-06-19T22:56:35.761Z,100756.47
2023-06-19T22:59:02.970Z,100760.00
2023-06-19T23:01:31.871Z,100760.00
2023-06-19T23:03:58.768Z,100756.53
2023-06-19T23:06:28.300Z,100753.13
2023-06-19T23:08:55.167Z,100747.28
2023-06-19T23:11:22.207Z,100757.13
2023-06-19T23:13:48.957Z,100750.69
2023-06-19T23:16:15.752Z,100740.22
2023-06-19T23:18:42.439Z,100751.63
2023-06-19T23:21:09.518Z,100744.78
2023-06-19T23:23:37.673Z,100743.53
2023-06-19T23:26:04.413Z,100739.25
2023-06-19T23:28:32.876Z,100736.09
2023-06-19T23:31:00.302Z,100727.31
2023-06-19T23:33:31.235Z,100736.16
2023-06-19T23:36:01.380Z,100736.94
2023-06-19T23:38:31.925Z,100728.47
2023-06-19T23:40:58.891Z,100730.13
2023-06-19T23:43:26.071Z,100724.41
2023-06-19T23:45:52.976Z,100726.53
2023-06-19T23:48:22.674Z,100724.09
2023-06-19T23:50:49.937Z,100727.66
2023-06-19T23:53:16.876Z,100727.53
2023-06-19T23:55:52.977Z,100732.28
2023-06-19T23:58:23.475Z,100730.53
